Time;durP1;ratioP1;P1;durP2;ratioP2;P2;SDS_P1;SDS_P2;PMS_P1;PMS_P2;Temp;Humidity;BMP_temperature;BMP_pressure;BME280_temperature;BME280_humidity;BME280_pressure;Samples;Min_cycle;Max_cycle;Signal;HPM_P1;HPM_P2
2021/08/21 00:01:29;;;;;;;25.13;16.83;;;;;;;17.40;69.01;101850.09;10521655;28;20533;-85
2021/08/21 00:06:30;;;;;;;28.42;17.65;;;;;;;17.39;68.76;101851.19;10488278;28;20480;-85
2021/08/21 00:11:34;;;;;;;23.95;16.88;;;;;;;17.36;68.84;101848.03;10504561;28;20476;-84
2021/08/21 00:16:34;;;;;;;25.00;16.35;;;;;;;17.27;69.02;101852.09;10488069;28;20388;-84
2021/08/21 00:21:36;;;;;;;37.85;18.50;;;;;;;17.18;68.77;101848.75;10520269;28;20130;-84
2021/08/21 00:26:37;;;;;;;23.52;17.13;;;;;;;17.18;69.57;101851.50;10477267;28;20522;-85
2021/08/21 00:31:41;;;;;;;23.40;17.48;;;;;;;17.15;68.99;101854.66;10489481;28;20059;-85
2021/08/21 00:36:41;;;;;;;29.67;19.98;;;;;;;17.11;69.09;101850.69;10474425;28;20036;-84
2021/08/21 00:41:43;;;;;;;36.10;19.63;;;;;;;17.03;69.31;101842.72;10491998;28;20364;-85
2021/08/21 00:47:08;;;;;;;37.00;20.95;;;;;;;17.04;68.14;101844.38;10492983;28;20379;-85
2021/08/21 00:52:14;;;;;;;46.50;27.05;;;;;;;16.81;69.59;101810.19;10496959;28;20032;-85
2021/08/21 00:57:15;;;;;;;38.28;26.63;;;;;;;16.90;69.67;101830.78;10469820;28;20054;-84
2021/08/21 01:02:16;;;;;;;46.50;26.05;;;;;;;16.73;69.63;101807.69;10485699;28;20056;-84
2021/08/21 01:07:18;;;;;;;48.00;24.27;;;;;;;16.94;69.41;101842.97;10498240;28;20033;-84
2021/08/21 01:12:19;;;;;;;35.53;22.52;;;;;;;16.99;70.04;101838.75;10497365;28;20047;-84
2021/08/21 01:17:20;;;;;;;47.17;27.05;;;;;;;16.79;69.87;101797.81;10480306;28;20047;-84
2021/08/21 01:22:25;;;;;;;38.92;28.02;;;;;;;16.86;69.57;101806.81;10496589;28;20037;-84
2021/08/21 01:27:33;;;;;;;57.05;28.65;;;;;;;16.95;69.58;101836.44;10494261;28;20500;-84
2021/08/21 01:32:34;;;;;;;45.22;30.30;;;;;;;16.94;69.90;101834.78;10464652;28;20490;-85
2021/08/21 01:37:35;;;;;;;54.75;34.03;;;;;;;17.01;70.00;101834.75;10480435;28;20459;-85
2021/08/21 01:42:38;;;;;;;73.03;33.28;;;;;;;17.06;69.78;101825.88;10495017;28;20079;-85
2021/08/21 01:47:42;;;;;;;54.70;33.15;;;;;;;17.02;69.90;101833.69;10477681;28;20028;-84
2021/08/21 01:52:47;;;;;;;58.45;33.10;;;;;;;17.07;69.46;101833.00;10476793;28;20065;-84
2021/08/21 01:57:50;;;;;;;50.78;31.13;;;;;;;17.04;69.80;101828.84;10477675;28;20044;-84
2021/08/21 02:02:51;;;;;;;54.05;32.83;;;;;;;17.01;69.96;101823.81;10493069;28;20047;-84
2021/08/21 02:07:52;;;;;;;69.28;34.53;;;;;;;17.04;69.90;101837.03;10495002;28;20085;-84
2021/08/21 02:12:53;;;;;;;52.40;32.20;;;;;;;17.07;69.78;101822.94;10477364;28;20115;-85
2021/08/21 02:17:54;;;;;;;46.33;33.55;;;;;;;17.08;70.43;101827.34;10495956;28;20039;-84
2021/08/21 02:22:54;;;;;;;42.22;30.95;;;;;;;17.15;70.61;101827.31;10459667;28;20048;-84
2021/08/21 02:28:10;;;;;;;46.42;30.63;;;;;;;17.14;69.38;101818.25;10476853;28;20048;-84
2021/08/21 02:33:11;;;;;;;53.75;34.55;;;;;;;17.26;70.28;101823.03;10477634;28;20418;-85
2021/08/21 02:38:12;;;;;;;45.03;30.15;;;;;;;16.65;69.98;101717.66;10476455;28;20127;-85
2021/08/21 02:43:13;;;;;;;47.88;28.85;;;;;;;17.30;70.04;101827.00;10476491;28;20029;-84
2021/08/21 02:48:14;;;;;;;51.90;29.98;;;;;;;17.19;70.45;101823.06;10476567;28;20044;-84
2021/08/21 02:53:15;;;;;;;48.20;28.60;;;;;;;16.80;70.48;101755.72;10476162;28;20128;-84
2021/08/21 02:58:16;;;;;;;32.00;26.85;;;;;;;17.18;70.77;101807.69;10476469;28;20459;-84
2021/08/21 03:03:17;;;;;;;36.38;26.17;;;;;;;16.92;70.68;101765.75;10493998;28;20052;-85
2021/08/21 03:08:18;;;;;;;42.63;28.88;;;;;;;17.17;70.39;101801.41;10462368;28;20024;-84
2021/08/21 03:13:19;;;;;;;50.13;27.48;;;;;;;17.17;71.02;101806.88;10498499;28;20131;-84
2021/08/21 03:18:19;;;;;;;36.65;25.50;;;;;;;17.29;70.95;101801.50;10481267;28;20032;-85
2021/08/21 03:23:20;;;;;;;44.15;27.67;;;;;;;17.32;70.76;101795.59;10476684;28;20508;-85
2021/08/21 03:28:20;;;;;;;39.25;24.27;;;;;;;17.33;70.36;101808.25;10475708;28;20051;-85
2021/08/21 03:33:21;;;;;;;38.38;27.08;;;;;;;17.26;70.62;101796.50;10477177;28;20036;-85
2021/08/21 03:38:21;;;;;;;40.85;27.38;;;;;;;17.22;70.79;101797.16;10491695;28;20460;-84
2021/08/21 03:43:22;;;;;;;49.13;29.38;;;;;;;17.20;70.82;101789.19;10492267;28;20048;-84
2021/08/21 03:48:22;;;;;;;41.30;26.83;;;;;;;17.25;70.98;101800.28;10474759;28;20032;-84
2021/08/21 03:53:23;;;;;;;43.03;26.70;;;;;;;17.37;71.01;101790.31;10490552;28;20364;-84
2021/08/21 03:58:24;;;;;;;39.70;25.60;;;;;;;17.20;71.22;101756.31;10490705;28;20068;-84
2021/08/21 04:03:24;;;;;;;45.40;25.88;;;;;;;17.33;70.51;101771.81;10491110;28;20051;-84
2021/08/21 04:08:25;;;;;;;40.45;23.98;;;;;;;17.46;70.87;101792.78;10491126;28;20040;-84
2021/08/21 04:13:27;;;;;;;40.47;25.52;;;;;;;17.27;70.95;101737.13;10507593;28;20205;-84
2021/08/21 04:18:28;;;;;;;36.72;25.10;;;;;;;17.53;71.03;101788.94;10457078;28;20041;-85
2021/08/21 04:23:28;;;;;;;46.00;28.70;;;;;;;17.41;71.37;101793.44;10505874;28;20036;-84
2021/08/21 04:28:29;;;;;;;41.72;26.50;;;;;;;17.48;71.89;101785.19;10471719;28;20483;-84
2021/08/21 04:33:30;;;;;;;46.88;31.17;;;;;;;17.60;71.50;101797.94;10492013;28;20400;-84
2021/08/21 04:38:32;;;;;;;40.58;25.67;;;;;;;17.75;71.02;101789.41;10463165;28;20032;-84
2021/08/21 04:43:33;;;;;;;48.80;31.15;;;;;;;17.79;71.26;101785.19;10480847;28;20052;-84
2021/08/21 04:48:34;;;;;;;61.42;35.47;;;;;;;17.79;71.18;101789.81;10496379;28;20372;-84
2021/08/21 04:53:34;;;;;;;63.15;37.03;;;;;;;17.82;71.65;101792.13;10477258;28;20047;-84
2021/08/21 04:58:35;;;;;;;66.95;39.33;;;;;;;17.64;71.47;101770.94;10495280;28;20037;-84
2021/08/21 05:03:36;;;;;;;59.45;36.88;;;;;;;17.80;71.30;101799.69;10494784;28;20178;-84
2021/08/21 05:08:37;;;;;;;74.95;39.13;;;;;;;17.81;71.86;101799.50;10494772;28;20040;-84
2021/08/21 05:13:37;;;;;;;68.18;36.88;;;;;;;17.86;71.51;101804.28;10461234;28;20151;-84
2021/08/21 05:18:44;;;;;;;77.88;35.33;;;;;;;17.92;71.40;101808.03;10479112;28;20119;-84
2021/08/21 05:23:44;;;;;;;70.03;37.92;;;;;;;17.95;71.44;101810.34;10480731;28;20048;-84
2021/08/21 05:28:45;;;;;;;63.10;38.85;;;;;;;18.13;71.72;101818.63;10506153;28;20119;-83
2021/08/21 05:33:45;;;;;;;65.22;39.53;;;;;;;18.27;71.98;101817.41;10508654;28;20036;-84
2021/08/21 05:38:46;;;;;;;76.60;41.03;;;;;;;18.23;71.35;101780.53;10527119;28;20040;-83
2021/08/21 05:43:46;;;;;;;75.38;44.83;;;;;;;18.48;72.32;101809.81;10506223;28;20538;-84
2021/08/21 05:48:47;;;;;;;78.43;39.50;;;;;;;18.41;72.16;101792.56;10504537;28;20032;-84
2021/08/21 05:53:47;;;;;;;65.35;38.38;;;;;;;18.78;72.45;101818.97;10503979;28;20051;-84
2021/08/21 05:58:49;;;;;;;65.18;40.10;;;;;;;19.22;72.22;101822.41;10504798;28;20530;-84
2021/08/21 06:03:52;;;;;;;66.68;40.58;;;;;;;19.97;70.35;101794.44;10504585;28;20028;-83
2021/08/21 06:08:53;;;;;;;53.33;33.95;;;;;;;19.98;70.27;101807.09;10504208;28;20501;-83
2021/08/21 06:13:53;;;;;;;57.20;34.42;;;;;;;20.16;70.91;101817.13;10503694;28;20040;-84
2021/08/21 06:18:54;;;;;;;55.03;35.70;;;;;;;21.76;68.20;101813.78;10520062;28;20115;-83
2021/08/21 06:23:54;;;;;;;39.38;27.98;;;;;;;21.72;67.29;101816.19;10503113;28;20048;-83
2021/08/21 06:28:55;;;;;;;42.33;27.05;;;;;;;20.77;68.32;101805.84;10486488;28;20061;-83
2021/08/21 06:33:55;;;;;;;46.33;25.85;;;;;;;20.71;68.70;101823.31;10503403;28;20059;-83
2021/08/21 06:38:59;;;;;;;39.33;26.73;;;;;;;20.39;68.74;101812.72;10504672;28;20585;-84
2021/08/21 06:44:00;;;;;;;43.17;24.35;;;;;;;20.32;69.61;101821.06;10502270;28;20043;-84
2021/08/21 06:49:01;;;;;;;37.13;25.67;;;;;;;20.19;69.52;101813.91;10519980;28;20066;-84
2021/08/21 06:54:04;;;;;;;42.08;25.45;;;;;;;20.32;69.99;101822.97;10505911;28;20031;-85
2021/08/21 06:59:09;;;;;;;36.22;24.30;;;;;;;20.90;69.64;101819.34;10446981;28;20134;-84
2021/08/21 07:04:15;;;;;;;44.40;24.05;;;;;;;21.13;69.12;101815.66;10532331;28;20031;-84
2021/08/21 07:09:16;;;;;;;37.45;23.73;;;;;;;21.26;68.99;101809.03;10519016;28;20036;-86
2021/08/21 07:14:16;;;;;;;39.33;23.13;;;;;;;21.52;69.08;101826.88;10546726;28;20451;-85
2021/08/21 07:19:17;;;;;;;36.15;22.60;;;;;;;21.67;68.89;101809.78;10520600;28;20060;-82
2021/08/21 07:24:17;;;;;;;33.75;21.02;;;;;;;21.91;68.26;101804.94;10517047;28;20063;-84
2021/08/21 07:29:18;;;;;;;31.58;18.58;;;;;;;22.37;67.21;101769.78;10526372;28;20134;-83
2021/08/21 07:34:18;;;;;;;20.67;16.60;;;;;;;22.83;65.93;101787.75;10510825;28;20036;-82
2021/08/21 07:39:19;;;;;;;17.35;14.73;;;;;;;23.43;66.01;101795.06;10525787;28;20119;-83
2021/08/21 07:44:19;;;;;;;27.02;15.50;;;;;;;24.75;62.52;101791.56;10525795;28;20028;-83
2021/08/21 07:49:21;;;;;;;18.08;13.55;;;;;;;25.18;60.95;101783.97;10509235;28;20548;-83
2021/08/21 07:54:22;;;;;;;25.92;15.15;;;;;;;26.22;58.73;101789.22;10532688;28;20035;-84
2021/08/21 07:59:23;;;;;;;15.75;11.65;;;;;;;26.73;57.79;101782.69;10523266;28;20111;-84
2021/08/21 08:04:28;;;;;;;21.45;12.60;;;;;;;27.34;56.34;101787.94;10518384;28;20526;-86
2021/08/21 08:09:30;;;;;;;14.27;10.73;;;;;;;26.53;55.40;101795.56;10521808;28;20032;-85
2021/08/21 08:14:31;;;;;;;14.05;11.25;;;;;;;26.42;56.63;101802.25;10491978;28;20416;-85
2021/08/21 08:19:31;;;;;;;17.58;12.07;;;;;;;26.21;56.59;101796.72;10491632;28;20119;-85
2021/08/21 08:24:32;;;;;;;24.00;10.90;;;;;;;25.61;55.89;101767.09;10490203;28;20052;-85
2021/08/21 08:29:32;;;;;;;10.82;9.77;;;;;;;25.87;57.57;101799.28;10491730;28;20123;-85
2021/08/21 08:34:33;;;;;;;16.45;10.63;;;;;;;25.04;56.65;101738.44;10542679;28;20055;-85
2021/08/21 08:39:33;;;;;;;16.45;11.32;;;;;;;25.53;58.96;101804.53;10525008;28;20089;-85
2021/08/21 08:44:34;;;;;;;16.05;10.57;;;;;;;25.84;56.22;101807.31;10523740;28;20044;-85
2021/08/21 08:49:34;;;;;;;15.10;10.82;;;;;;;25.64;56.64;101795.09;10507716;28;20036;-85
2021/08/21 08:54:35;;;;;;;12.90;10.48;;;;;;;25.69;57.12;101791.50;10490394;28;20378;-85
2021/08/21 08:59:36;;;;;;;13.35;9.18;;;;;;;26.00;60.90;101792.31;10521870;28;20032;-83
2021/08/21 09:04:37;;;;;;;13.23;10.15;;;;;;;26.20;55.97;101803.41;10488956;28;20036;-82
2021/08/21 09:09:37;;;;;;;11.90;9.50;;;;;;;27.10;55.45;101796.13;10485647;28;20040;-85
2021/08/21 09:14:37;;;;;;;11.55;9.23;;;;;;;27.69;53.52;101791.53;10501770;28;20119;-82
2021/08/21 09:19:38;;;;;;;11.63;9.35;;;;;;;28.26;56.83;101787.94;10519303;28;20155;-85
2021/08/21 09:24:40;;;;;;;9.23;5.45;;;;;;;27.99;53.78;101738.41;10520292;28;20140;-83
2021/08/21 09:29:41;;;;;;;11.90;7.93;;;;;;;28.09;50.78;101761.69;10525039;28;20028;-85
2021/08/21 09:34:48;;;;;;;11.23;6.72;;;;;;;28.41;48.06;101786.97;10519091;28;20149;-88
2021/08/21 09:39:48;;;;;;;;;;;;;;;29.53;55.71;101778.19;10504230;28;20444;-86
2021/08/21 09:44:49;;;;;;;9.43;7.72;;;;;;;29.71;55.07;101791.31;10462204;28;20041;-92
2021/08/21 09:49:49;;;;;;;7.03;6.20;;;;;;;29.35;55.05;101780.69;10512349;28;20444;-94
2021/08/21 09:55:10;;;;;;;9.93;5.80;;;;;;;29.89;52.11;101779.25;10507599;28;20458;-93
2021/08/21 10:00:12;;;;;;;7.10;6.43;;;;;;;28.63;48.30;101786.44;10508479;28;20024;-88
2021/08/21 10:05:12;;;;;;;7.93;7.22;;;;;;;28.94;45.78;101738.59;10487231;28;20115;-84
2021/08/21 10:10:14;;;;;;;5.88;5.38;;;;;;;29.58;50.66;101761.34;10537469;28;20040;-83
2021/08/21 10:15:15;;;;;;;9.98;5.18;;;;;;;30.10;45.32;101756.53;10527104;28;20092;-84
2021/08/21 10:20:15;;;;;;;5.70;5.15;;;;;;;30.20;48.48;101750.78;10542977;28;20130;-84
2021/08/21 10:25:16;;;;;;;8.82;7.68;;;;;;;30.19;45.23;101760.28;10503835;28;20486;-84
2021/08/21 10:30:26;;;;;;;10.35;7.65;;;;;;;30.22;45.47;101762.47;10538050;28;20386;-84
2021/08/21 10:35:46;;;;;;;9.75;8.05;;;;;;;29.57;45.99;101777.25;10522785;28;20020;-84
2021/08/21 10:40:46;;;;;;;12.57;7.13;;;;;;;29.28;45.23;101774.66;10521096;28;20388;-85
2021/08/21 10:45:47;;;;;;;9.77;7.38;;;;;;;29.60;45.88;101776.69;10485340;28;20036;-84
2021/08/21 10:50:49;;;;;;;7.63;6.82;;;;;;;28.87;47.08;101758.50;10502623;28;20028;-83
2021/08/21 10:55:49;;;;;;;5.63;4.43;;;;;;;29.74;44.34;101743.25;10518442;28;20104;-83
2021/08/21 11:01:03;;;;;;;3.47;3.17;;;;;;;29.47;44.98;101763.47;10499605;28;20443;-84
2021/08/21 11:06:08;;;;;;;4.88;4.05;;;;;;;29.48;46.33;101748.38;10518742;28;20435;-83
2021/08/21 11:11:16;;;;;;;4.60;4.20;;;;;;;29.01;44.01;101736.31;10534104;28;20355;-83
2021/08/21 11:16:20;;;;;;;3.70;3.28;;;;;;;29.52;48.39;101709.56;10536471;28;20139;-85
2021/08/21 11:21:35;;;;;;;3.75;3.45;;;;;;;28.72;48.10;101728.09;10518151;28;20054;-84
2021/08/21 11:26:35;;;;;;;3.60;3.13;;;;;;;28.04;44.46;101740.28;10516677;28;20044;-85
2021/08/21 11:31:55;;;;;;;4.18;3.78;;;;;;;27.72;47.14;101740.88;10517567;28;20036;-84
2021/08/21 11:36:56;;;;;;;7.82;3.25;;;;;;;28.58;46.10;101738.28;10499223;28;20032;-83
2021/08/21 11:41:57;;;;;;;2.55;2.38;;;;;;;28.51;46.72;101733.09;10498012;28;20440;-84
2021/08/21 11:47:08;;;;;;;4.88;3.30;;;;;;;28.17;51.47;101731.22;10514891;28;20482;-84
2021/08/21 11:52:09;;;;;;;4.20;3.83;;;;;;;27.88;47.85;101725.72;10515567;28;20032;-82
2021/08/21 11:57:10;;;;;;;7.90;5.22;;;;;;;27.86;47.84;101730.75;10496056;28;20032;-85
2021/08/21 12:02:14;;;;;;;4.32;3.97;;;;;;;27.18;48.54;101686.28;10493261;28;20070;-84
2021/08/21 12:07:33;;;;;;;9.52;4.68;;;;;;;27.89;54.19;101730.16;10514768;28;20475;-84
2021/08/21 12:12:34;;;;;;;8.25;6.45;;;;;;;28.02;48.40;101726.69;10498822;28;20093;-85
2021/08/21 12:17:37;;;;;;;5.22;4.82;;;;;;;28.58;47.60;101710.44;10497028;28;20116;-85
2021/08/21 12:22:38;;;;;;;5.68;4.93;;;;;;;29.17;47.50;101726.59;10498324;28;20115;-87
2021/08/21 12:27:41;;;;;;;5.78;5.28;;;;;;;29.73;45.94;101722.03;10472660;28;20562;-85
2021/08/21 12:32:42;;;;;;;10.85;7.95;;;;;;;29.19;46.17;101715.94;10458385;28;20090;-82
2021/08/21 12:37:43;;;;;;;9.50;5.53;;;;;;;29.73;43.68;101708.06;10458026;28;20495;-84
2021/08/21 12:42:44;;;;;;;7.68;5.55;;;;;;;30.94;43.69;101719.00;10457620;28;20400;-87
2021/08/21 12:47:44;;;;;;;8.23;6.68;;;;;;;31.38;45.63;101706.22;10455978;28;20036;-82
2021/08/21 12:53:01;;;;;;;7.07;4.60;;;;;;;30.86;48.33;101689.00;10493028;28;20403;-83
2021/08/21 12:58:06;;;;;;;4.90;4.57;;;;;;;30.96;46.91;101694.34;10479923;28;20021;-84
2021/08/21 13:03:13;;;;;;;6.37;4.47;;;;;;;30.47;44.94;101694.06;10464852;28;20028;-85
2021/08/21 13:08:14;;;;;;;7.38;3.35;;;;;;;28.82;46.42;101696.44;10465842;28;20032;-83
2021/08/21 13:13:17;;;;;;;5.28;4.78;;;;;;;29.62;46.05;101692.66;10482632;28;20044;-83
2021/08/21 13:18:19;;;;;;;4.28;3.88;;;;;;;30.30;44.84;101686.28;10499426;28;20058;-83
2021/08/21 13:23:20;;;;;;;5.78;4.40;;;;;;;29.89;46.73;101686.25;10499131;28;20039;-83
2021/08/21 13:28:20;;;;;;;6.13;4.55;;;;;;;30.14;43.60;101670.97;10540383;28;20460;-82
2021/08/21 13:33:21;;;;;;;3.13;2.90;;;;;;;30.43;43.34;101676.22;10506015;28;20040;-84
2021/08/21 13:38:22;;;;;;;4.97;3.15;;;;;;;30.00;51.58;101682.16;10538796;28;20403;-84
2021/08/21 13:43:22;;;;;;;4.30;3.88;;;;;;;29.09;41.71;101651.13;10521896;28;20124;-82
2021/08/21 13:48:23;;;;;;;4.45;4.05;;;;;;;29.56;42.45;101674.31;10539123;28;20042;-83
2021/08/21 13:53:23;;;;;;;4.18;3.53;;;;;;;29.50;43.23;101653.22;10486247;28;20097;-83
2021/08/21 13:58:24;;;;;;;3.20;2.95;;;;;;;29.85;43.56;101637.78;10504040;28;20036;-83
2021/08/21 14:03:24;;;;;;;3.72;3.33;;;;;;;29.95;43.51;101604.03;10518962;28;20418;-83
2021/08/21 14:08:24;;;;;;;5.10;3.05;;;;;;;29.47;44.89;101626.75;10520169;28;20523;-85
2021/08/21 14:13:25;;;;;;;3.80;3.40;;;;;;;29.38;41.86;101617.44;10519833;28;20176;-86
2021/08/21 14:18:25;;;;;;;10.85;2.72;;;;;;;30.26;47.18;101625.78;10519712;28;20083;-85
2021/08/21 14:23:26;;;;;;;3.42;3.00;;;;;;;31.00;43.33;101629.06;10484684;28;20032;-86
2021/08/21 14:28:26;;;;;;;3.47;2.72;;;;;;;30.23;42.47;101582.50;10477964;28;20150;-86
2021/08/21 14:33:27;;;;;;;2.95;2.75;;;;;;;29.97;42.74;101624.13;10460453;28;20078;-85
2021/08/21 14:38:27;;;;;;;1.98;1.88;;;;;;;30.00;46.68;101617.91;10459317;28;20473;-85
2021/08/21 14:43:29;;;;;;;3.08;2.88;;;;;;;29.91;42.49;101618.94;10492832;28;20365;-86
2021/08/21 14:48:30;;;;;;;2.45;2.25;;;;;;;30.15;43.09;101582.38;10494404;28;20461;-86
2021/08/21 14:53:30;;;;;;;6.43;2.95;;;;;;;30.32;43.79;101621.72;10458619;28;20072;-86
2021/08/21 14:58:31;;;;;;;3.85;3.03;;;;;;;29.62;43.97;101597.75;10460394;28;20039;-86
2021/08/21 15:03:31;;;;;;;3.35;3.03;;;;;;;29.26;42.01;101595.63;10459949;28;20091;-86
2021/08/21 15:08:35;;;;;;;2.95;2.75;;;;;;;28.78;43.62;101598.66;10458604;28;20093;-87
2021/08/21 15:13:35;;;;;;;4.32;3.33;;;;;;;28.68;50.80;101580.09;10473003;28;20040;-86
2021/08/21 15:18:36;;;;;;;5.60;2.88;;;;;;;28.06;44.60;101559.84;10439350;28;20029;-86
2021/08/21 15:23:36;;;;;;;3.38;3.10;;;;;;;28.18;45.40;101596.44;10456645;28;20055;-87
2021/08/21 15:28:37;;;;;;;5.32;3.35;;;;;;;27.67;45.49;101597.06;10476283;28;20028;-87
2021/08/21 15:33:38;;;;;;;7.45;3.08;;;;;;;27.58;45.64;101544.00;10443838;28;20036;-87
2021/08/21 15:38:39;;;;;;;2.45;2.25;;;;;;;28.40;45.82;101593.09;10460517;28;20040;-87
2021/08/21 15:43:39;;;;;;;4.20;3.17;;;;;;;28.24;46.99;101586.91;10475986;28;20047;-87
2021/08/21 15:48:40;;;;;;;6.70;2.78;;;;;;;28.35;47.14;101590.34;10443701;28;20039;-87
2021/08/21 15:53:42;;;;;;;4.07;2.80;;;;;;;28.26;48.64;101575.44;10475414;28;20387;-86
2021/08/21 15:58:43;;;;;;;2.95;2.70;;;;;;;27.45;47.77;101522.47;10460118;28;20412;-87
2021/08/21 16:03:44;;;;;;;2.72;2.53;;;;;;;27.16;46.52;101513.38;10474911;28;20055;-87
2021/08/21 16:08:46;;;;;;;2.70;2.50;;;;;;;26.99;46.34;101509.03;10475332;28;20312;-87
2021/08/21 16:13:47;;;;;;;2.97;2.78;;;;;;;27.34;47.80;101566.25;10475210;28;20043;-87
2021/08/21 16:18:47;;;;;;;3.28;3.08;;;;;;;26.75;50.56;101583.19;10452667;28;20051;-87
2021/08/21 16:23:48;;;;;;;9.43;3.28;;;;;;;26.52;47.97;101491.16;10468080;28;20532;-87
2021/08/21 16:28:49;;;;;;;3.13;2.92;;;;;;;26.01;48.00;101394.34;10453877;28;20056;-87
2021/08/21 16:33:51;;;;;;;3.72;3.15;;;;;;;27.05;48.72;101562.63;10459750;28;20029;-87
2021/08/21 16:38:51;;;;;;;4.40;3.80;;;;;;;26.62;48.63;101471.59;10443426;28;20032;-87
2021/08/21 16:43:55;;;;;;;3.63;3.33;;;;;;;26.96;49.16;101529.06;10459476;28;20486;-87
2021/08/21 16:48:55;;;;;;;3.42;3.20;;;;;;;26.98;49.27;101535.19;10460807;28;20028;-88
2021/08/21 16:53:58;;;;;;;11.57;4.07;;;;;;;26.43;49.07;101485.34;10459242;28;20462;-87
2021/08/21 16:59:01;;;;;;;4.25;3.92;;;;;;;26.17;50.71;101450.56;10475779;28;20033;-87
2021/08/21 17:04:13;;;;;;;4.65;3.90;;;;;;;26.69;49.76;101531.56;10458774;28;20040;-88
2021/08/21 17:09:14;;;;;;;5.10;4.60;;;;;;;26.55;49.09;101517.53;10493378;28;20100;-87
2021/08/21 17:14:14;;;;;;;4.30;4.00;;;;;;;26.23;50.70;101484.66;10475069;28;20528;-87
2021/08/21 17:19:16;;;;;;;4.05;3.75;;;;;;;26.28;51.02;101495.75;10476402;28;20412;-87
2021/08/21 17:24:19;;;;;;;4.40;3.75;;;;;;;26.35;51.42;101507.34;10442648;28;20053;-88
2021/08/21 17:29:20;;;;;;;4.45;3.65;;;;;;;26.28;51.30;101492.97;10475137;28;20032;-87
2021/08/21 17:34:21;;;;;;;7.53;3.88;;;;;;;25.94;52.35;101488.19;10491798;28;20044;-87
2021/08/21 17:39:21;;;;;;;4.78;4.13;;;;;;;25.60;52.71;101505.53;10441920;28;20451;-87
2021/08/21 17:44:24;;;;;;;3.88;3.03;;;;;;;25.50;53.02;101472.31;10462072;28;20199;-87
2021/08/21 17:49:25;;;;;;;3.78;3.33;;;;;;;25.58;53.40;101480.00;10479354;28;20150;-87
2021/08/21 17:54:26;;;;;;;4.22;3.70;;;;;;;25.51;53.96;101480.31;10478102;28;20171;-87
2021/08/21 17:59:26;;;;;;;4.45;4.07;;;;;;;25.52;53.65;101475.59;10478468;28;20103;-88
2021/08/21 18:04:27;;;;;;;5.50;3.65;;;;;;;25.39;53.96;101465.13;10460452;28;20029;-87
2021/08/21 18:09:28;;;;;;;10.32;4.70;;;;;;;25.32;53.60;101465.44;10477362;28;20033;-87
2021/08/21 18:14:28;;;;;;;3.97;3.58;;;;;;;25.18;54.62;101479.06;10460969;28;20433;-88
2021/08/21 18:19:35;;;;;;;6.25;3.80;;;;;;;24.74;54.57;101424.28;10479814;28;20079;-87
2021/08/21 18:24:36;;;;;;;5.88;4.18;;;;;;;24.91;54.79;101484.06;10479804;28;20053;-88
2021/08/21 18:29:37;;;;;;;15.85;4.53;;;;;;;24.76;55.19;101460.00;10467968;28;20433;-87
2021/08/21 18:34:40;;;;;;;4.90;4.43;;;;;;;24.83;55.28;101479.94;10446307;28;20063;-87
2021/08/21 18:39:42;;;;;;;6.15;3.72;;;;;;;24.80;55.20;101484.09;10461469;28;20030;-88
2021/08/21 18:44:46;;;;;;;5.18;3.60;;;;;;;24.72;56.08;101481.88;10461004;28;20514;-87
2021/08/21 18:49:46;;;;;;;3.70;3.47;;;;;;;24.73;55.75;101474.41;10461116;28;20048;-87
2021/08/21 18:54:51;;;;;;;4.25;3.85;;;;;;;24.69;55.42;101463.06;10475379;28;20447;-87
2021/08/21 18:59:51;;;;;;;5.00;4.55;;;;;;;24.61;56.12;101485.78;10461271;28;20051;-87
2021/08/21 19:04:52;;;;;;;4.82;4.53;;;;;;;24.20;56.15;101396.34;10477466;28;20378;-88
2021/08/21 19:09:53;;;;;;;7.93;4.43;;;;;;;24.01;56.11;101371.97;10443269;28;20517;-87
2021/08/21 19:14:54;;;;;;;4.72;4.20;;;;;;;24.36;56.00;101448.66;10459978;28;20068;-87
2021/08/21 19:19:54;;;;;;;6.25;5.63;;;;;;;23.67;56.83;101378.03;10477005;28;20071;-88
2021/08/21 19:24:55;;;;;;;9.25;5.80;;;;;;;24.03;57.68;101469.38;10474338;28;20058;-88
2021/08/21 19:29:55;;;;;;;6.63;6.00;;;;;;;23.97;57.86;101464.94;10459140;28;20127;-88
2021/08/21 19:35:00;;;;;;;6.55;5.28;;;;;;;23.84;58.03;101452.47;10476725;28;20060;-88
2021/08/21 19:40:04;;;;;;;10.90;5.50;;;;;;;23.67;58.38;101441.63;10474723;28;20039;-87
2021/08/21 19:45:12;;;;;;;6.22;5.13;;;;;;;23.79;58.45;101466.28;10454340;28;20055;-88
2021/08/21 19:50:13;;;;;;;8.10;5.28;;;;;;;23.46;59.22;101412.25;10453398;28;20124;-88
2021/08/21 19:55:14;;;;;;;12.55;6.97;;;;;;;23.60;59.43;101443.78;10434803;28;20036;-88
2021/08/21 20:00:15;;;;;;;8.73;5.95;;;;;;;23.49;60.02;101449.56;10452968;28;20135;-87
2021/08/21 20:05:16;;;;;;;6.00;5.40;;;;;;;23.40;60.14;101452.84;10437269;28;20147;-87
2021/08/21 20:10:20;;;;;;;11.23;6.63;;;;;;;23.18;61.03;101457.72;10469297;28;20036;-87
2021/08/21 20:15:21;;;;;;;7.40;6.05;;;;;;;23.03;61.75;101480.53;10471653;28;20402;-85
2021/08/21 20:20:21;;;;;;;8.82;7.32;;;;;;;21.83;63.98;101423.78;10453292;28;20040;-83
2021/08/21 20:25:24;;;;;;;11.18;8.65;;;;;;;20.71;70.78;101518.66;10452245;28;20040;-81
2021/08/21 20:30:24;;;;;;;11.45;7.50;;;;;;;20.20;71.85;101488.31;10452754;28;20433;-81
2021/08/21 20:35:25;;;;;;;14.40;7.05;;;;;;;20.41;72.00;101524.44;10486294;28;20075;-81
2021/08/21 20:40:25;;;;;;;8.63;7.22;;;;;;;20.53;71.03;101516.97;10486459;28;20058;-81
2021/08/21 20:45:26;;;;;;;8.93;7.35;;;;;;;20.74;70.60;101495.28;10467863;28;20032;-81
2021/08/21 20:50:26;;;;;;;16.52;9.10;;;;;;;20.78;69.69;101499.22;10485976;28;20040;-81
2021/08/21 20:55:27;;;;;;;10.07;9.05;;;;;;;20.81;69.51;101501.47;10484932;28;20366;-81
2021/08/21 21:00:27;;;;;;;10.35;8.57;;;;;;;20.67;69.33;101482.53;10484717;28;20542;-81
2021/08/21 21:05:27;;;;;;;12.27;9.52;;;;;;;20.74;69.69;101492.53;10484453;28;20363;-81
2021/08/21 21:10:28;;;;;;;12.80;9.98;;;;;;;20.81;69.66;101488.56;10466154;28;20080;-81
2021/08/21 21:15:28;;;;;;;10.43;9.30;;;;;;;20.84;68.61;101481.72;10469898;28;20584;-80
2021/08/21 21:20:29;;;;;;;16.13;10.95;;;;;;;20.83;69.19;101499.28;10457906;28;20108;-80
2021/08/21 21:25:30;;;;;;;20.33;11.00;;;;;;;20.94;68.76;101498.38;10491760;28;20178;-81
2021/08/21 21:30:31;;;;;;;16.60;12.05;;;;;;;21.03;68.49;101491.34;10474250;28;20040;-80
2021/08/21 21:35:31;;;;;;;15.70;14.18;;;;;;;21.06;68.66;101485.34;10492026;28;20079;-80
2021/08/21 21:40:34;;;;;;;62.50;40.33;;;;;;;20.98;68.10;101463.75;10491856;28;20040;-79
2021/08/21 21:45:35;;;;;;;22.55;17.63;;;;;;;21.22;68.13;101482.78;10473965;28;20044;-80
2021/08/21 21:50:36;;;;;;;17.33;15.55;;;;;;;21.08;68.83;101474.91;10473855;28;20032;-79
2021/08/21 21:55:37;;;;;;;19.13;17.10;;;;;;;21.11;68.46;101468.03;10492093;28;20040;-80
2021/08/21 22:00:44;;;;;;;24.10;16.45;;;;;;;20.73;67.12;101409.13;10493266;28;20037;-80
2021/08/21 22:05:46;;;;;;;20.17;17.02;;;;;;;21.02;69.17;101462.13;10474934;28;20475;-80
2021/08/21 22:10:46;;;;;;;19.25;17.17;;;;;;;21.04;68.81;101454.47;10458567;28;20123;-80
2021/08/21 22:15:46;;;;;;;23.83;19.10;;;;;;;21.11;68.34;101466.13;10491930;28;20437;-80
2021/08/21 22:20:47;;;;;;;22.77;16.30;;;;;;;21.13;68.29;101463.97;10491741;28;20048;-81
2021/08/21 22:25:49;;;;;;;23.20;19.75;;;;;;;20.62;68.12;101416.41;10489819;28;20542;-81
2021/08/21 22:30:49;;;;;;;22.60;19.30;;;;;;;20.59;69.53;101408.66;10472627;28;20045;-82
2021/08/21 22:35:50;;;;;;;22.50;19.08;;;;;;;20.87;69.64;101448.16;10472720;28;20468;-81
2021/08/21 22:40:50;;;;;;;22.05;19.00;;;;;;;20.85;69.35;101450.34;10492660;28;20122;-80
2021/08/21 22:45:50;;;;;;;25.67;21.90;;;;;;;20.93;69.19;101447.16;10458816;28;20043;-81
2021/08/21 22:50:51;;;;;;;25.83;21.55;;;;;;;20.93;68.71;101449.91;10475382;28;20115;-81